Victoria, Alabama
Current Conditions -  °F | °C
As of 6:56 PM on Wednesday 17 Dec 2014 (Local Time) from KSXS Reporting Station
Clear Clear  
Wind Chill: 46°   Ceiling: Unl
Heat Index: 46°   Visibility: 10mi
Dew Point: 42°   Wind: 2mph
Humidity: 87%   Direction: 310°NW
Pressure: 30.21"   Gusts: NA
Location:  31.5584°N, 86.0569°W
Report Text: KSXS 180056Z AUTO 31002KT 10SM CLR 08/06 A3021 RMK AO2 SLP234 T00750055
Loading
Personal Weather Stations






























Interactive Weather Map New forecast layout! Learn more

10-Day Weather Forecast

Advertisements
Track Severe Weather on mobile